Time;durP1;ratioP1;P1;durP2;ratioP2;P2;SDS_P1;SDS_P2;PMS_P1;PMS_P2;Temp;Humidity;BMP_temperature;BMP_pressure;BME280_temperature;BME280_humidity;BME280_pressure;Samples;Min_cycle;Max_cycle;Signal;HPM_P1;HPM_P2
2023/02/15 00:01:33;;;;;;;9.85;6.55;;;;;;;;;;5016832;28;20065;-84
2023/02/15 00:04:00;;;;;;;12.23;7.05;;;;;;;;;;5034355;28;20060;-84
2023/02/15 00:06:27;;;;;;;11.52;6.60;;;;;;;;;;5034578;28;20045;-83
2023/02/15 00:08:55;;;;;;;11.13;7.22;;;;;;;;;;5033813;28;20053;-83
2023/02/15 00:14:10;;;;;;;11.20;6.63;;;;;;;;;;5034112;28;20528;-83
2023/02/15 00:16:38;;;;;;;12.80;7.32;;;;;;;;;;5034020;28;20056;-83
2023/02/15 00:19:05;;;;;;;9.45;6.18;;;;;;;;;;5016526;28;20056;-84
2023/02/15 00:21:33;;;;;;;8.73;6.13;;;;;;;;;;5017006;28;20128;-83
2023/02/15 00:24:01;;;;;;;9.05;5.82;;;;;;;;;;5034030;28;20053;-83
2023/02/15 00:26:29;;;;;;;10.00;6.18;;;;;;;;;;5014617;28;20482;-83
2023/02/15 00:28:58;;;;;;;8.45;6.03;;;;;;;;;;5034387;28;20060;-83
2023/02/15 00:31:26;;;;;;;10.77;6.15;;;;;;;;;;5017237;28;20049;-83
2023/02/15 00:33:54;;;;;;;8.30;5.47;;;;;;;;;;5020540;28;20060;-84
2023/02/15 00:36:21;;;;;;;7.88;5.85;;;;;;;;;;5020141;28;20049;-83
2023/02/15 00:38:48;;;;;;;8.43;5.38;;;;;;;;;;5020121;28;20057;-83
2023/02/15 00:41:15;;;;;;;8.68;6.05;;;;;;;;;;5037637;28;20073;-83
2023/02/15 00:43:43;;;;;;;7.65;5.93;;;;;;;;;;5020027;28;20421;-83
2023/02/15 00:46:10;;;;;;;7.57;5.22;;;;;;;;;;5019595;28;20549;-83
2023/02/15 00:48:37;;;;;;;8.35;5.50;;;;;;;;;;5019920;28;20504;-83
2023/02/15 00:51:04;;;;;;;8.57;5.57;;;;;;;;;;5019539;28;20069;-83
2023/02/15 00:53:34;;;;;;;7.85;5.43;;;;;;;;;;5020504;28;20420;-83
2023/02/15 00:56:01;;;;;;;9.82;6.25;;;;;;;;;;5036700;28;20110;-83
2023/02/15 00:58:29;;;;;;;7.88;5.75;;;;;;;;;;5027930;28;20053;-83
2023/02/15 01:01:02;;;;;;;7.60;5.35;;;;;;;;;;5019985;28;20049;-83
2023/02/15 01:03:30;;;;;;;;;;;;;;;;;;5037683;28;20046;-84
2023/02/15 01:05:57;;;;;;;6.25;4.93;;;;;;;;;;5035921;28;20365;-83
2023/02/15 01:08:24;;;;;;;7.50;5.10;;;;;;;;;;5037456;28;20095;-83
2023/02/15 01:10:52;;;;;;;7.30;5.22;;;;;;;;;;5019754;28;20124;-83
2023/02/15 01:13:19;;;;;;;6.55;5.10;;;;;;;;;;5036847;28;20061;-83
2023/02/15 01:15:52;;;;;;;6.65;5.30;;;;;;;;;;5019800;28;20057;-83
2023/02/15 01:18:20;;;;;;;;;;;;;;;;;;5020133;28;20052;-83
2023/02/15 01:20:47;;;;;;;6.82;4.47;;;;;;;;;;5043769;28;19932;-83
2023/02/15 01:23:15;;;;;;;9.15;4.75;;;;;;;;;;5038569;28;20040;-84
2023/02/15 01:25:42;;;;;;;7.47;5.05;;;;;;;;;;5038049;28;20132;-84
2023/02/15 01:28:09;;;;;;;7.53;4.68;;;;;;;;;;5019543;28;20046;-83
2023/02/15 01:30:37;;;;;;;5.95;4.30;;;;;;;;;;5019278;28;20056;-84
2023/02/15 01:33:04;;;;;;;7.63;4.63;;;;;;;;;;5036502;28;20124;-84
2023/02/15 01:35:31;;;;;;;10.95;5.70;;;;;;;;;;5036561;28;20521;-83
2023/02/15 01:37:58;;;;;;;5.32;3.95;;;;;;;;;;5036490;28;20049;-84
2023/02/15 01:40:26;;;;;;;5.45;4.15;;;;;;;;;;5020011;28;20063;-84
2023/02/15 01:42:54;;;;;;;6.60;4.82;;;;;;;;;;5018081;28;20053;-84
2023/02/15 01:45:26;;;;;;;5.47;4.53;;;;;;;;;;5036206;28;20506;-83
2023/02/15 01:48:02;;;;;;;8.50;4.35;;;;;;;;;;5018757;28;20049;-84
2023/02/15 01:50:30;;;;;;;8.48;4.70;;;;;;;;;;5019172;28;20045;-84
2023/02/15 01:53:04;;;;;;;5.60;4.25;;;;;;;;;;5036370;28;20045;-84
2023/02/15 01:55:34;;;;;;;7.32;4.55;;;;;;;;;;5036547;28;20417;-84
2023/02/15 01:58:02;;;;;;;5.78;4.20;;;;;;;;;;5019516;28;20414;-84
2023/02/15 02:00:29;;;;;;;7.10;4.53;;;;;;;;;;5036830;28;20052;-84
2023/02/15 02:02:57;;;;;;;7.15;4.47;;;;;;;;;;5018758;28;20053;-83
2023/02/15 02:05:25;;;;;;;6.80;4.05;;;;;;;;;;5035329;28;20088;-83
2023/02/15 02:07:54;;;;;;;6.22;4.35;;;;;;;;;;5036168;28;20053;-83
2023/02/15 02:10:23;;;;;;;6.65;4.45;;;;;;;;;;5018492;28;20053;-83
2023/02/15 02:12:52;;;;;;;5.70;4.28;;;;;;;;;;5017821;28;20482;-83
2023/02/15 02:15:21;;;;;;;4.95;4.45;;;;;;;;;;5035770;28;20500;-84
2023/02/15 02:18:02;;;;;;;5.53;3.92;;;;;;;;;;5018278;28;20055;-83
2023/02/15 02:20:53;;;;;;;7.00;4.60;;;;;;;;;;5035706;28;20046;-83
2023/02/15 02:23:25;;;;;;;7.35;4.93;;;;;;;;;;5036083;28;20120;-83
2023/02/15 02:26:06;;;;;;;4.45;4.05;;;;;;;;;;5018472;28;20045;-83
2023/02/15 02:28:42;;;;;;;6.50;4.50;;;;;;;;;;5035651;28;20059;-83
2023/02/15 02:31:28;;;;;;;5.70;4.38;;;;;;;;;;5018289;28;20053;-84
2023/02/15 02:34:01;;;;;;;5.40;4.30;;;;;;;;;;5035933;28;20128;-83
2023/02/15 02:36:45;;;;;;;6.18;4.90;;;;;;;;;;5018491;28;20099;-84
2023/02/15 02:39:12;;;;;;;;;;;;;;;;;;5036092;28;20132;-83
2023/02/15 02:41:51;;;;;;;8.95;4.82;;;;;;;;;;5035720;28;19921;-84
2023/02/15 02:44:25;;;;;;;7.15;3.97;;;;;;;;;;5018422;28;20595;-84
2023/02/15 02:46:53;;;;;;;5.57;3.90;;;;;;;;;;5017988;28;20092;-84
2023/02/15 02:49:31;;;;;;;6.93;3.78;;;;;;;;;;5017965;28;20084;-83
2023/02/15 02:51:59;;;;;;;6.47;4.00;;;;;;;;;;5018214;28;20053;-83
2023/02/15 02:54:28;;;;;;;4.18;3.22;;;;;;;;;;5035420;28;20052;-84
2023/02/15 02:56:56;;;;;;;3.78;3.42;;;;;;;;;;5017960;28;20088;-84
2023/02/15 02:59:45;;;;;;;5.13;3.80;;;;;;;;;;5017667;28;20409;-84
2023/02/15 03:02:25;;;;;;;6.40;4.15;;;;;;;;;;5035210;28;20045;-84
2023/02/15 03:04:58;;;;;;;4.63;3.95;;;;;;;;;;5035216;28;20488;-84
2023/02/15 03:07:27;;;;;;;4.53;4.07;;;;;;;;;;5017539;28;20080;-83
2023/02/15 03:09:57;;;;;;;5.38;3.70;;;;;;;;;;5017698;28;20076;-84
2023/02/15 03:12:34;;;;;;;4.25;3.72;;;;;;;;;;5017416;28;20052;-84
2023/02/15 03:15:03;;;;;;;5.00;3.60;;;;;;;;;;5017595;28;20080;-84
2023/02/15 03:17:32;;;;;;;8.52;4.30;;;;;;;;;;5044946;28;20063;-84
2023/02/15 03:20:02;;;;;;;9.00;4.95;;;;;;;;;;5055838;28;20033;-84
2023/02/15 03:22:32;;;;;;;6.43;4.13;;;;;;;;;;5047848;28;20085;-84
2023/02/15 03:25:05;;;;;;;8.85;4.88;;;;;;;;;;5035863;28;20133;-84
2023/02/15 03:27:36;;;;;;;7.50;5.35;;;;;;;;;;5035518;28;20060;-84
2023/02/15 03:30:05;;;;;;;6.82;4.68;;;;;;;;;;5017689;28;20084;-84
2023/02/15 03:32:33;;;;;;;8.77;4.60;;;;;;;;;;5016866;28;20132;-84
2023/02/15 03:35:01;;;;;;;8.45;4.78;;;;;;;;;;5016590;28;20482;-84
2023/02/15 03:37:31;;;;;;;6.22;3.92;;;;;;;;;;5035216;28;20605;-83
2023/02/15 03:41:09;;;;;;;7.30;4.25;;;;;;;;;;5016443;28;20049;-84
2023/02/15 03:42:56;;;;;;;7.18;3.90;;;;;;;;;;5034514;28;20045;-84
2023/02/15 03:45:26;;;;;;;6.22;4.00;;;;;;;;;;5033723;28;20059;-84
2023/02/15 03:47:55;;;;;;;5.05;3.70;;;;;;;;;;5017725;28;20050;-84
2023/02/15 03:53:14;;;;;;;7.05;4.03;;;;;;;;;;5034372;28;20328;-84
2023/02/15 03:55:42;;;;;;;4.07;2.80;;;;;;;;;;5017102;28;20490;-84
2023/02/15 04:03:52;;;;;;;3.30;2.92;;;;;;;;;;5034443;28;20049;-83
2023/02/15 04:06:20;;;;;;;5.03;3.70;;;;;;;;;;5017264;28;20050;-84
2023/02/15 04:11:33;;;;;;;5.47;3.42;;;;;;;;;;5038447;28;20049;-85
2023/02/15 04:16:02;;;;;;;5.00;3.55;;;;;;;;;;5038468;28;20053;-85
2023/02/15 04:16:47;;;;;;;4.68;3.40;;;;;;;;;;5038630;28;20048;-85
2023/02/15 04:27:34;;;;;;;6.22;3.13;;;;;;;;;;5038521;28;20051;-85
2023/02/15 04:30:01;;;;;;;4.32;3.25;;;;;;;;;;5021239;28;20136;-85
2023/02/15 04:32:28;;;;;;;3.58;3.25;;;;;;;;;;5038539;28;20060;-85
2023/02/15 04:34:55;;;;;;;4.60;2.80;;;;;;;;;;5038644;28;20053;-85
2023/02/15 04:37:23;;;;;;;4.53;2.72;;;;;;;;;;5020985;28;20050;-85
2023/02/15 04:39:50;;;;;;;2.75;2.55;;;;;;;;;;5039081;28;20492;-85
2023/02/15 04:42:17;;;;;;;4.07;2.88;;;;;;;;;;5038588;28;20500;-85
2023/02/15 04:44:45;;;;;;;3.70;2.70;;;;;;;;;;5023347;28;20049;-85
2023/02/15 04:47:12;;;;;;;3.17;2.67;;;;;;;;;;5023871;28;20054;-85
2023/02/15 04:49:39;;;;;;;3.47;2.92;;;;;;;;;;5036030;28;20053;-85
2023/02/15 04:52:06;;;;;;;3.90;3.03;;;;;;;;;;5030066;28;20049;-85
2023/02/15 04:54:34;;;;;;;3.63;3.13;;;;;;;;;;5039862;28;20064;-85
2023/02/15 04:57:01;;;;;;;3.58;2.50;;;;;;;;;;5038712;28;20128;-85
2023/02/15 04:59:28;;;;;;;4.95;2.80;;;;;;;;;;5020775;28;20057;-85
2023/02/15 05:01:56;;;;;;;4.78;2.65;;;;;;;;;;5021471;28;20041;-85
2023/02/15 05:04:23;;;;;;;2.47;2.10;;;;;;;;;;5038010;28;20049;-85
2023/02/15 05:06:50;;;;;;;3.63;2.83;;;;;;;;;;5020392;28;20049;-85
2023/02/15 05:09:17;;;;;;;2.65;2.40;;;;;;;;;;5037378;28;20050;-85
2023/02/15 05:11:45;;;;;;;5.13;2.97;;;;;;;;;;5044502;28;20049;-84
2023/02/15 05:14:12;;;;;;;2.97;2.35;;;;;;;;;;5051746;28;20113;-85
2023/02/15 05:16:39;;;;;;;3.13;2.70;;;;;;;;;;5058534;28;20152;-84
2023/02/15 05:19:07;;;;;;;2.42;2.10;;;;;;;;;;5031210;28;20128;-84
2023/02/15 05:21:34;;;;;;;3.65;2.80;;;;;;;;;;5044360;28;20132;-85
2023/02/15 05:28:18;;;;;;;5.22;2.53;;;;;;;;;;5042544;28;20053;-85
2023/02/15 05:29:35;;;;;;;3.67;2.88;;;;;;;;;;5042867;28;20080;-85
2023/02/15 05:32:03;;;;;;;4.35;2.60;;;;;;;;;;5050738;28;20128;-85
2023/02/15 05:34:31;;;;;;;3.45;2.63;;;;;;;;;;5062555;28;20049;-85
2023/02/15 05:36:58;;;;;;;5.03;3.15;;;;;;;;;;5061225;28;20059;-85
2023/02/15 05:39:25;;;;;;;4.47;2.53;;;;;;;;;;5044639;28;20049;-85
2023/02/15 05:41:53;;;;;;;2.50;2.20;;;;;;;;;;5046743;28;20064;-84
2023/02/15 05:44:20;;;;;;;3.00;2.63;;;;;;;;;;5045735;28;20544;-85
2023/02/15 05:46:48;;;;;;;3.17;2.85;;;;;;;;;;5046910;28;20045;-85
2023/02/15 05:49:15;;;;;;;2.67;2.28;;;;;;;;;;5064506;28;20065;-84
2023/02/15 05:51:42;;;;;;;4.28;2.90;;;;;;;;;;5047129;28;20041;-85
2023/02/15 05:54:09;;;;;;;3.97;2.60;;;;;;;;;;5065696;28;20520;-85
2023/02/15 05:56:37;;;;;;;4.18;2.38;;;;;;;;;;5048300;28;20064;-85
2023/02/15 05:59:04;;;;;;;3.38;2.30;;;;;;;;;;5066100;28;20052;-85
2023/02/15 06:01:31;;;;;;;3.83;2.95;;;;;;;;;;5064984;28;20048;-84
2023/02/15 06:03:58;;;;;;;3.78;2.85;;;;;;;;;;5048777;28;20489;-85
2023/02/15 06:06:26;;;;;;;3.92;2.60;;;;;;;;;;5065767;28;20474;-85
2023/02/15 06:08:53;;;;;;;3.42;2.40;;;;;;;;;;5064781;28;20059;-85
2023/02/15 06:11:20;;;;;;;3.40;2.15;;;;;;;;;;5047271;28;20121;-85
2023/02/15 06:13:47;;;;;;;3.47;2.28;;;;;;;;;;5049308;28;20049;-85
2023/02/15 06:16:15;;;;;;;4.55;3.03;;;;;;;;;;5066854;28;20051;-85
2023/02/15 06:18:43;;;;;;;7.38;2.60;;;;;;;;;;5066375;28;20056;-85
2023/02/15 06:21:11;;;;;;;5.30;2.88;;;;;;;;;;5048988;28;20436;-85
2023/02/15 06:23:38;;;;;;;5.60;4.05;;;;;;;;;;5051312;28;20037;-85
2023/02/15 06:26:06;;;;;;;5.15;3.30;;;;;;;;;;5052085;28;20135;-85
2023/02/15 06:28:33;;;;;;;9.25;4.03;;;;;;;;;;5048609;28;20059;-85
2023/02/15 06:31:01;;;;;;;6.00;3.72;;;;;;;;;;5048826;28;20048;-85
2023/02/15 06:33:30;;;;;;;7.47;4.03;;;;;;;;;;5049038;28;20079;-85
2023/02/15 06:35:57;;;;;;;7.63;3.70;;;;;;;;;;5032766;28;20132;-85
2023/02/15 06:38:24;;;;;;;11.27;4.07;;;;;;;;;;5048411;28;20065;-85
2023/02/15 06:40:51;;;;;;;9.27;3.83;;;;;;;;;;5048540;28;20053;-86
2023/02/15 06:43:19;;;;;;;16.98;4.22;;;;;;;;;;5049512;28;20136;-86
2023/02/15 06:45:46;;;;;;;12.75;4.05;;;;;;;;;;5066603;28;20055;-85
2023/02/15 06:48:13;;;;;;;8.25;4.00;;;;;;;;;;5049495;28;20588;-86
2023/02/15 06:50:40;;;;;;;9.48;4.22;;;;;;;;;;5066956;28;20131;-85
2023/02/15 06:53:07;;;;;;;8.07;4.97;;;;;;;;;;5067394;28;20108;-86
2023/02/15 06:55:36;;;;;;;13.15;7.32;;;;;;;;;;5066593;28;20075;-86
2023/02/15 06:58:04;;;;;;;16.02;6.43;;;;;;;;;;5049822;28;20056;-86
2023/02/15 07:00:31;;;;;;;10.13;5.75;;;;;;;;;;5050238;28;20045;-86
2023/02/15 07:02:59;;;;;;;21.35;12.23;;;;;;;;;;5067327;28;20569;-86
2023/02/15 07:05:33;;;;;;;20.73;11.13;;;;;;;;;;5047803;28;20139;-86
2023/02/15 07:08:01;;;;;;;22.25;10.93;;;;;;;;;;5065767;28;20504;-86
2023/02/15 07:10:28;;;;;;;18.13;9.52;;;;;;;;;;5067685;28;20041;-86
2023/02/15 07:12:56;;;;;;;13.95;5.93;;;;;;;;;;5057637;28;20089;-86
2023/02/15 07:15:23;;;;;;;12.52;7.25;;;;;;;;;;5061369;28;20104;-85
2023/02/15 07:17:50;;;;;;;11.27;6.00;;;;;;;;;;5049004;28;20049;-86
2023/02/15 07:20:19;;;;;;;20.65;11.20;;;;;;;;;;5046364;28;20045;-86
2023/02/15 07:22:47;;;;;;;15.20;6.50;;;;;;;;;;5066497;28;20055;-86
2023/02/15 07:25:14;;;;;;;17.55;7.25;;;;;;;;;;5064248;28;20053;-85
2023/02/15 07:27:41;;;;;;;9.77;5.95;;;;;;;;;;5049320;28;20055;-86
2023/02/15 07:30:11;;;;;;;28.42;6.22;;;;;;;;;;5063732;28;20079;-85
2023/02/15 07:33:22;;;;;;;9.85;5.60;;;;;;;;;;5047477;28;20052;-86
2023/02/15 07:35:26;;;;;;;12.98;6.00;;;;;;;;;;5064159;28;20045;-86
2023/02/15 07:37:53;;;;;;;13.23;6.47;;;;;;;;;;5047187;28;20456;-86
2023/02/15 07:40:23;;;;;;;12.05;7.40;;;;;;;;;;5046931;28;20113;-85
2023/02/15 07:42:54;;;;;;;15.57;7.85;;;;;;;;;;5047217;28;20052;-85
2023/02/15 07:45:22;;;;;;;11.30;7.00;;;;;;;;;;5066241;28;20098;-85
2023/02/15 07:47:49;;;;;;;12.02;6.80;;;;;;;;;;5047751;28;20086;-85
2023/02/15 07:50:16;;;;;;;13.75;7.90;;;;;;;;;;5048087;28;20165;-85
2023/02/15 07:52:43;;;;;;;12.52;6.88;;;;;;;;;;5065155;28;20059;-86
2023/02/15 07:55:12;;;;;;;11.50;6.78;;;;;;;;;;5045727;28;20160;-84
2023/02/15 07:57:44;;;;;;;11.13;7.05;;;;;;;;;;5045565;28;20053;-85
2023/02/15 08:00:13;;;;;;;10.93;6.63;;;;;;;;;;5046558;28;20053;-85
2023/02/15 08:02:41;;;;;;;10.90;6.38;;;;;;;;;;5029837;28;20045;-84
2023/02/15 08:05:10;;;;;;;11.77;6.28;;;;;;;;;;5046630;28;20087;-85
2023/02/15 08:07:37;;;;;;;11.60;6.70;;;;;;;;;;5047987;28;20048;-85
2023/02/15 08:10:04;;;;;;;13.25;6.90;;;;;;;;;;5048210;28;20073;-85
2023/02/15 08:12:32;;;;;;;9.30;6.50;;;;;;;;;;5064756;28;20059;-85
2023/02/15 08:15:00;;;;;;;10.65;6.60;;;;;;;;;;5067718;28;20055;-85
2023/02/15 08:17:30;;;;;;;11.23;7.15;;;;;;;;;;5049915;28;20049;-85
2023/02/15 08:19:58;;;;;;;12.40;6.43;;;;;;;;;;5065167;28;20053;-86
2023/02/15 08:22:26;;;;;;;9.90;6.78;;;;;;;;;;5047993;28;20069;-85
2023/02/15 08:24:53;;;;;;;18.38;7.40;;;;;;;;;;5065810;28;20049;-86
2023/02/15 08:27:26;;;;;;;14.48;7.38;;;;;;;;;;5065464;28;20076;-85
2023/02/15 08:29:53;;;;;;;21.30;11.20;;;;;;;;;;5048551;28;20122;-85
2023/02/15 08:32:21;;;;;;;1999.90;342.55;;;;;;;;;;5048635;28;20052;-85
2023/02/15 08:34:48;;;;;;;1999.90;999.90;;;;;;;;;;5066003;28;20136;-85
2023/02/15 08:37:16;;;;;;;1999.90;698.40;;;;;;;;;;5048651;28;20059;-84
2023/02/15 08:39:45;;;;;;;1999.90;483.33;;;;;;;;;;5049383;28;20120;-85
2023/02/15 08:42:13;;;;;;;143.48;35.80;;;;;;;;;;5066319;28;20128;-85
2023/02/15 08:44:41;;;;;;;11.05;8.65;;;;;;;;;;5049565;28;20064;-83
2023/02/15 08:47:08;;;;;;;9.05;7.05;;;;;;;;;;5068577;28;20053;-85
2023/02/15 08:49:35;;;;;;;6.70;4.97;;;;;;;;;;5065749;28;20489;-85
2023/02/15 08:52:03;;;;;;;7.93;3.58;;;;;;;;;;5061758;28;20049;-82
2023/02/15 08:54:30;;;;;;;6.75;3.42;;;;;;;;;;5047096;28;20533;-82
2023/02/15 08:56:58;;;;;;;3.47;2.88;;;;;;;;;;5065300;28;20069;-85
2023/02/15 08:59:26;;;;;;;3.50;3.13;;;;;;;;;;5065611;28;20475;-82
2023/02/15 09:01:55;;;;;;;8.20;3.45;;;;;;;;;;5048975;28;20060;-82
2023/02/15 09:04:22;;;;;;;4.45;2.50;;;;;;;;;;5033251;28;20045;-82
2023/02/15 09:06:50;;;;;;;5.75;3.00;;;;;;;;;;5066470;28;20045;-82
2023/02/15 09:09:18;;;;;;;8.00;2.60;;;;;;;;;;5070089;28;20045;-82
2023/02/15 09:11:47;;;;;;;8.35;2.92;;;;;;;;;;5059742;28;20029;-81
2023/02/15 09:14:16;;;;;;;7.55;2.65;;;;;;;;;;5060796;28;20080;-82
2023/02/15 09:16:49;;;;;;;5.60;2.75;;;;;;;;;;5049988;28;20072;-82
2023/02/15 09:19:17;;;;;;;8.43;2.85;;;;;;;;;;5049158;28;20049;-82
2023/02/15 09:21:45;;;;;;;3.28;2.70;;;;;;;;;;5049342;28;20068;-82
2023/02/15 09:24:13;;;;;;;4.32;2.63;;;;;;;;;;5048932;28;20052;-82
2023/02/15 09:26:43;;;;;;;4.43;2.05;;;;;;;;;;5066252;28;20087;-83
2023/02/15 09:29:11;;;;;;;2.35;2.15;;;;;;;;;;5048955;28;20052;-82
2023/02/15 09:31:46;;;;;;;2.85;2.20;;;;;;;;;;5066735;28;20041;-82
2023/02/15 09:34:15;;;;;;;4.05;2.35;;;;;;;;;;5048047;28;20064;-82
2023/02/15 09:36:43;;;;;;;4.72;2.65;;;;;;;;;;5066339;28;20099;-82
2023/02/15 09:39:12;;;;;;;18.50;4.15;;;;;;;;;;5048034;28;20436;-82
2023/02/15 09:41:51;;;;;;;6.97;3.03;;;;;;;;;;5047357;28;20049;-82
2023/02/15 09:44:21;;;;;;;30.02;6.22;;;;;;;;;;5048854;28;20071;-82
2023/02/15 09:47:00;;;;;;;13.65;4.30;;;;;;;;;;5047081;28;20103;-82
2023/02/15 09:49:53;;;;;;;26.27;5.97;;;;;;;;;;5047493;28;20052;-82
2023/02/15 09:52:34;;;;;;;35.50;7.88;;;;;;;;;;5015463;28;20073;-82
2023/02/15 09:55:18;;;;;;;32.10;6.75;;;;;;;;;;5065544;28;20480;-82
2023/02/15 09:57:45;;;;;;;;;;;;;;;;;;5066663;28;20052;-82
2023/02/15 10:00:18;;;;;;;21.02;5.72;;;;;;;;;;5065657;28;19943;-82
2023/02/15 10:02:49;;;;;;;26.88;6.22;;;;;;;;;;5048648;28;20055;-82
2023/02/15 10:05:28;;;;;;;14.30;4.22;;;;;;;;;;5046671;28;20052;-82
2023/02/15 10:08:01;;;;;;;16.05;4.28;;;;;;;;;;5066181;28;20041;-82
2023/02/15 10:10:29;;;;;;;10.77;3.33;;;;;;;;;;5051576;28;20079;-82
2023/02/15 10:12:56;;;;;;;12.13;3.88;;;;;;;;;;5060450;28;20048;-79
2023/02/15 10:15:25;;;;;;;15.65;4.28;;;;;;;;;;5060476;28;20049;-82
2023/02/15 10:18:12;;;;;;;10.57;3.63;;;;;;;;;;5060628;28;20049;-82
2023/02/15 10:20:52;;;;;;;24.10;5.22;;;;;;;;;;5048580;28;20507;-82
2023/02/15 10:23:38;;;;;;;17.92;5.55;;;;;;;;;;5066979;28;20496;-82
2023/02/15 10:26:25;;;;;;;1.60;1.20;;;;;;;;;;5049611;28;20081;-81
2023/02/15 10:29:00;;;;;;;1.30;1.20;;;;;;;;;;5048994;28;20049;-83
2023/02/15 10:31:46;;;;;;;2.33;1.40;;;;;;;;;;5049762;28;20557;-82
2023/02/15 10:34:21;;;;;;;1.70;1.30;;;;;;;;;;5050073;28;20128;-80
2023/02/15 10:36:56;;;;;;;1.27;1.27;;;;;;;;;;5047341;28;20053;-82
2023/02/15 10:39:38;;;;;;;1.38;1.10;;;;;;;;;;5047156;28;20049;-82
2023/02/15 10:42:20;;;;;;;2.30;1.10;;;;;;;;;;5048381;28;20095;-82
2023/02/15 10:44:57;;;;;;;1.40;1.30;;;;;;;;;;5063958;28;20048;-81
2023/02/15 10:47:43;;;;;;;1.45;1.35;;;;;;;;;;5063272;28;20049;-82
2023/02/15 10:50:10;;;;;;;1.73;1.40;;;;;;;;;;5065037;28;20045;-82
2023/02/15 10:52:41;;;;;;;3.38;1.60;;;;;;;;;;5048179;28;20079;-81
2023/02/15 10:55:08;;;;;;;1.30;1.30;;;;;;;;;;5066502;28;20049;-82
2023/02/15 10:57:36;;;;;;;1.48;1.38;;;;;;;;;;5048252;28;20112;-82
2023/02/15 11:00:09;;;;;;;1.45;1.35;;;;;;;;;;5048607;28;20049;-81
2023/02/15 11:02:36;;;;;;;1.73;1.63;;;;;;;;;;5065277;28;20135;-82
2023/02/15 11:05:16;;;;;;;5.78;1.70;;;;;;;;;;5048425;28;20084;-82
2023/02/15 11:07:45;;;;;;;2.58;1.77;;;;;;;;;;5050661;28;20049;-82
2023/02/15 11:10:23;;;;;;;3.38;1.80;;;;;;;;;;5075355;28;20116;-81
2023/02/15 11:12:51;;;;;;;1.40;1.40;;;;;;;;;;5060250;28;20036;-82
2023/02/15 11:15:34;;;;;;;4.25;1.83;;;;;;;;;;5066895;28;20114;-83
2023/02/15 11:18:20;;;;;;;1.58;1.48;;;;;;;;;;5066791;28;20615;-82
2023/02/15 11:21:00;;;;;;;1.80;1.15;;;;;;;;;;5048013;28;20044;-83
2023/02/15 11:23:28;;;;;;;1.65;1.58;;;;;;;;;;5066464;28;20052;-83
2023/02/15 11:26:00;;;;;;;1.50;1.40;;;;;;;;;;5048729;28;20060;-83
2023/02/15 11:28:31;;;;;;;1.50;1.50;;;;;;;;;;5048856;28;20068;-83
2023/02/15 11:31:00;;;;;;;1.80;1.60;;;;;;;;;;5049121;28;20045;-81
2023/02/15 11:33:31;;;;;;;1.70;1.60;;;;;;;;;;5066525;28;20080;-82
2023/02/15 11:35:59;;;;;;;1.48;1.42;;;;;;;;;;5048772;28;20051;-82
2023/02/15 11:38:29;;;;;;;6.05;1.80;;;;;;;;;;5048235;28;20095;-83
2023/02/15 11:41:00;;;;;;;2.65;1.85;;;;;;;;;;5066133;28;20080;-82
2023/02/15 11:43:35;;;;;;;2.28;1.70;;;;;;;;;;5066168;28;20040;-83
2023/02/15 11:46:02;;;;;;;2.20;1.90;;;;;;;;;;5067843;28;20135;-83
2023/02/15 11:48:30;;;;;;;2.60;2.00;;;;;;;;;;5049912;28;20107;-82
2023/02/15 11:50:58;;;;;;;2.30;2.20;;;;;;;;;;5068748;28;20037;-82
2023/02/15 11:53:27;;;;;;;2.25;2.15;;;;;;;;;;5035816;28;20056;-82
2023/02/15 11:55:55;;;;;;;2.53;2.33;;;;;;;;;;5051283;28;20142;-83
2023/02/15 11:58:45;;;;;;;8.13;2.20;;;;;;;;;;5050088;28;20041;-82
2023/02/15 12:01:33;;;;;;;2.42;2.28;;;;;;;;;;5068790;28;20063;-82
2023/02/15 12:04:04;;;;;;;2.67;2.47;;;;;;;;;;5050843;28;20119;-82
2023/02/15 12:06:34;;;;;;;2.63;2.50;;;;;;;;;;5068873;28;20059;-82
2023/02/15 12:09:01;;;;;;;2.85;2.65;;;;;;;;;;5051110;28;20408;-83
2023/02/15 12:11:32;;;;;;;4.00;2.47;;;;;;;;;;5067319;28;20049;-82
2023/02/15 12:14:01;;;;;;;4.45;3.33;;;;;;;;;;5051115;28;20083;-82
2023/02/15 12:16:29;;;;;;;3.83;3.42;;;;;;;;;;5049719;28;20045;-83
2023/02/15 12:18:58;;;;;;;3.15;2.90;;;;;;;;;;5049677;28;20572;-82
2023/02/15 12:21:27;;;;;;;6.18;2.90;;;;;;;;;;5065767;28;20088;-80
2023/02/15 12:23:56;;;;;;;3.10;2.90;;;;;;;;;;5048835;28;20087;-82
2023/02/15 12:26:27;;;;;;;4.07;2.53;;;;;;;;;;5048556;28;20077;-82
2023/02/15 12:28:58;;;;;;;3.08;2.88;;;;;;;;;;5069883;28;20051;-83
2023/02/15 12:31:27;;;;;;;4.18;2.75;;;;;;;;;;5053626;28;20113;-82
2023/02/15 12:33:57;;;;;;;3.47;3.20;;;;;;;;;;5052941;28;20052;-83
2023/02/15 12:36:32;;;;;;;6.22;3.40;;;;;;;;;;5071551;28;20056;-82
2023/02/15 12:39:19;;;;;;;5.28;2.80;;;;;;;;;;5070974;28;20044;-82
2023/02/15 12:41:57;;;;;;;3.20;2.90;;;;;;;;;;5070352;28;20476;-82
2023/02/15 12:44:26;;;;;;;3.33;3.00;;;;;;;;;;5070849;28;20055;-83
2023/02/15 12:47:04;;;;;;;3.92;2.80;;;;;;;;;;5070595;28;20045;-82
2023/02/15 12:49:34;;;;;;;4.35;2.88;;;;;;;;;;5070707;28;20104;-83
2023/02/15 12:52:03;;;;;;;3.80;2.78;;;;;;;;;;5071177;28;20045;-82
2023/02/15 12:54:41;;;;;;;4.38;2.95;;;;;;;;;;5067415;28;20049;-83
2023/02/15 12:57:31;;;;;;;3.95;3.13;;;;;;;;;;5058062;28;20088;-82
2023/02/15 13:00:00;;;;;;;5.55;3.33;;;;;;;;;;5033728;28;20049;-83
2023/02/15 13:02:30;;;;;;;20.35;5.03;;;;;;;;;;5041663;28;20049;-82
2023/02/15 13:04:58;;;;;;;4.22;2.83;;;;;;;;;;5052653;28;20053;-82
2023/02/15 13:07:26;;;;;;;3.45;3.13;;;;;;;;;;5062932;28;20045;-83
2023/02/15 13:09:55;;;;;;;4.32;3.55;;;;;;;;;;5055042;28;20099;-83
2023/02/15 13:12:26;;;;;;;5.93;3.78;;;;;;;;;;5041500;28;20052;-82
2023/02/15 13:14:54;;;;;;;4.25;3.38;;;;;;;;;;5040073;28;20093;-83
2023/02/15 13:17:33;;;;;;;5.07;3.80;;;;;;;;;;5039720;28;20045;-81
2023/02/15 13:20:23;;;;;;;4.93;3.63;;;;;;;;;;5039201;28;20056;-82
2023/02/15 13:22:52;;;;;;;4.40;3.50;;;;;;;;;;5040313;28;20051;-82
2023/02/15 13:25:22;;;;;;;5.78;3.70;;;;;;;;;;5057650;28;20090;-83
2023/02/15 13:27:52;;;;;;;5.57;3.80;;;;;;;;;;5039722;28;20049;-82
2023/02/15 13:30:25;;;;;;;4.93;3.72;;;;;;;;;;5057747;28;20047;-82
2023/02/15 13:32:55;;;;;;;4.45;3.33;;;;;;;;;;5057442;28;20104;-83
2023/02/15 13:35:23;;;;;;;13.05;3.88;;;;;;;;;;5039809;28;20053;-82
2023/02/15 13:38:03;;;;;;;6.25;3.95;;;;;;;;;;5039900;28;20041;-83
2023/02/15 13:40:38;;;;;;;4.65;3.70;;;;;;;;;;5039330;28;20052;-82
2023/02/15 13:43:14;;;;;;;3.92;3.63;;;;;;;;;;5057309;28;20079;-81
2023/02/15 13:45:47;;;;;;;5.38;3.75;;;;;;;;;;5039798;28;20053;-82
2023/02/15 13:48:33;;;;;;;3.88;3.55;;;;;;;;;;5039362;28;20048;-82
2023/02/15 13:51:22;;;;;;;6.70;3.90;;;;;;;;;;5057145;28;20054;-82
2023/02/15 13:54:16;;;;;;;4.85;3.92;;;;;;;;;;5039826;28;20067;-82
2023/02/15 13:56:46;;;;;;;4.25;3.85;;;;;;;;;;5034104;28;20052;-82
2023/02/15 13:59:31;;;;;;;6.03;3.85;;;;;;;;;;5056663;28;20063;-81
2023/02/15 14:02:07;;;;;;;11.60;4.57;;;;;;;;;;5057058;28;20044;-82
2023/02/15 14:04:49;;;;;;;5.85;4.10;;;;;;;;;;5057575;28;20049;-82
2023/02/15 14:07:24;;;;;;;5.30;4.10;;;;;;;;;;5041882;28;20132;-82
2023/02/15 14:09:54;;;;;;;12.10;4.40;;;;;;;;;;5058831;28;20051;-82
2023/02/15 14:12:34;;;;;;;6.15;3.90;;;;;;;;;;5059856;28;20052;-82
2023/02/15 14:15:20;;;;;;;7.93;5.03;;;;;;;;;;5040754;28;20421;-81
2023/02/15 14:17:53;;;;;;;5.07;4.43;;;;;;;;;;5044133;28;20411;-82
2023/02/15 14:20:40;;;;;;;4.32;3.83;;;;;;;;;;5043137;28;20103;-83
2023/02/15 14:23:29;;;;;;;4.35;3.63;;;;;;;;;;5040432;28;20119;-82
2023/02/15 14:26:00;;;;;;;7.00;4.60;;;;;;;;;;5061350;28;20059;-83
2023/02/15 14:28:36;;;;;;;6.63;5.32;;;;;;;;;;5042923;28;20045;-83
2023/02/15 14:31:06;;;;;;;5.40;4.90;;;;;;;;;;5042268;28;20049;-82
2023/02/15 14:33:37;;;;;;;6.53;5.30;;;;;;;;;;5039780;28;20060;-83
2023/02/15 14:36:05;;;;;;;7.43;5.32;;;;;;;;;;5058819;28;20052;-82
2023/02/15 14:38:36;;;;;;;6.32;5.38;;;;;;;;;;5058668;28;20052;-82
2023/02/15 14:41:22;;;;;;;7.35;5.40;;;;;;;;;;5058027;28;20049;-82
2023/02/15 14:43:55;;;;;;;6.72;4.93;;;;;;;;;;5058436;28;20053;-81
2023/02/15 14:46:25;;;;;;;7.63;5.78;;;;;;;;;;5057528;28;20048;-82
2023/02/15 14:48:54;;;;;;;5.75;5.15;;;;;;;;;;5039685;28;20071;-85
2023/02/15 14:51:39;;;;;;;12.20;6.18;;;;;;;;;;5056553;28;20049;-87
2023/02/15 14:54:08;;;;;;;8.13;5.75;;;;;;;;;;5039018;28;20139;-83
2023/02/15 14:56:35;;;;;;;13.32;5.75;;;;;;;;;;5038388;28;20140;-82
2023/02/15 14:59:11;;;;;;;4.82;4.32;;;;;;;;;;5043670;28;20053;-83
2023/02/15 15:01:39;;;;;;;7.93;5.47;;;;;;;;;;5075167;28;20047;-83
2023/02/15 15:04:08;;;;;;;12.00;5.63;;;;;;;;;;5055204;28;20053;-82
2023/02/15 15:06:40;;;;;;;10.23;4.80;;;;;;;;;;5037463;28;20049;-83
2023/02/15 15:09:12;;;;;;;5.15;4.65;;;;;;;;;;5037283;28;20048;-83
2023/02/15 15:11:50;;;;;;;5.88;4.80;;;;;;;;;;5053917;28;20045;-83
2023/02/15 15:14:32;;;;;;;7.45;5.38;;;;;;;;;;5037202;28;20096;-83
2023/02/15 15:17:04;;;;;;;5.82;4.93;;;;;;;;;;5037260;28;20497;-83
2023/02/15 15:19:54;;;;;;;7.95;5.60;;;;;;;;;;5033232;28;20049;-83
2023/02/15 15:22:23;;;;;;;8.75;6.22;;;;;;;;;;5019715;28;20046;-83
2023/02/15 15:24:52;;;;;;;11.20;5.60;;;;;;;;;;5037329;28;20050;-82
2023/02/15 15:27:38;;;;;;;38.55;7.53;;;;;;;;;;5055264;28;20049;-83
2023/02/15 15:30:14;;;;;;;7.22;4.55;;;;;;;;;;5054396;28;20074;-83